Time;durP1;ratioP1;P1;durP2;ratioP2;P2;SDS_P1;SDS_P2;PMS_P1;PMS_P2;Temp;Humidity;BMP_temperature;BMP_pressure;BME280_temperature;BME280_humidity;BME280_pressure;Samples;Min_cycle;Max_cycle;Signal;HPM_P1;HPM_P2
2022/03/14 00:00:01;;;;;;;9.98;7.80;;;;;;;7.80;53.86;101695.72;6233109;22;20019;-78
2022/03/14 00:02:40;;;;;;;9.50;7.80;;;;;;;7.79;54.02;101708.81;6294134;22;20023;-80
2022/03/14 00:05:10;;;;;;;8.98;7.90;;;;;;;7.78;53.68;101700.03;6306539;22;20030;-79
2022/03/14 00:07:38;;;;;;;10.48;8.43;;;;;;;7.78;54.35;101704.41;6266464;22;20380;-79
2022/03/14 00:10:07;;;;;;;10.63;8.00;;;;;;;7.76;54.52;101711.34;6296254;22;20019;-79
2022/03/14 00:12:37;;;;;;;8.68;7.80;;;;;;;7.75;54.56;101710.47;6251922;22;20026;-80
2022/03/14 00:15:11;;;;;;;10.45;8.43;;;;;;;7.77;54.29;101710.50;6224573;22;20031;-79
2022/03/14 00:17:43;;;;;;;10.05;8.40;;;;;;;7.78;54.78;101723.63;6250232;22;20039;-79
2022/03/14 00:20:13;;;;;;;10.43;8.43;;;;;;;7.79;54.96;101724.56;6273760;22;20015;-79
2022/03/14 00:22:44;;;;;;;9.00;8.07;;;;;;;7.79;54.85;101722.81;6211482;22;20187;-79
2022/03/14 00:25:13;;;;;;;12.85;8.73;;;;;;;7.80;55.34;101727.19;6275525;22;20019;-79
2022/03/14 00:27:42;;;;;;;10.60;7.78;;;;;;;7.80;55.19;101723.69;6266716;22;20015;-79
2022/03/14 00:30:12;;;;;;;14.68;7.55;;;;;;;7.80;55.31;101735.06;6272160;22;20012;-79
2022/03/14 00:32:41;;;;;;;13.15;8.70;;;;;;;7.81;55.53;101726.38;6261562;22;20046;-79
2022/03/14 00:35:10;;;;;;;13.32;8.82;;;;;;;7.85;55.89;101736.97;6276409;22;20422;-79
2022/03/14 00:37:38;;;;;;;10.90;8.38;;;;;;;7.84;56.14;101736.03;6267951;22;20140;-79
2022/03/14 00:40:08;;;;;;;15.07;8.32;;;;;;;7.86;56.57;101738.72;6276485;22;20019;-79
2022/03/14 00:42:39;;;;;;;10.02;8.02;;;;;;;7.86;57.34;101739.59;6240441;22;20024;-80
2022/03/14 00:45:08;;;;;;;10.07;8.57;;;;;;;7.88;57.51;101737.03;6252013;22;20012;-79
2022/03/14 00:47:37;;;;;;;9.98;8.93;;;;;;;7.92;57.97;101746.75;6211460;22;20020;-80
2022/03/14 00:50:06;;;;;;;10.95;8.65;;;;;;;7.93;58.28;101754.69;6241546;22;20015;-79
2022/03/14 00:52:35;;;;;;;11.90;8.40;;;;;;;7.95;58.13;101758.25;6261197;22;20208;-79
2022/03/14 00:55:06;;;;;;;12.70;9.00;;;;;;;7.97;58.33;101747.78;6247701;22;20019;-78
2022/03/14 00:57:35;;;;;;;8.98;7.95;;;;;;;7.99;59.25;101748.72;6272192;22;20015;-80
2022/03/14 01:00:05;;;;;;;10.43;9.10;;;;;;;7.99;59.40;101760.09;6277256;22;20012;-79
2022/03/14 01:02:36;;;;;;;12.35;8.98;;;;;;;7.98;59.39;101762.72;6257165;22;20416;-79
2022/03/14 01:05:05;;;;;;;;;;;;;;;7.96;60.75;101765.28;6277762;22;20346;-79
2022/03/14 01:07:34;;;;;;;10.90;8.73;;;;;;;7.93;59.47;101769.56;6232892;22;19930;-79
2022/03/14 01:10:04;;;;;;;15.52;9.80;;;;;;;7.90;60.06;101764.19;6247957;22;20349;-78
2022/03/14 01:12:32;;;;;;;7.63;6.80;;;;;;;7.84;60.52;101762.28;6238192;22;20050;-79
2022/03/14 01:15:02;;;;;;;14.13;9.23;;;;;;;7.76;60.80;101759.44;6265399;22;20463;-81
2022/03/14 01:17:31;;;;;;;14.45;8.90;;;;;;;7.71;61.33;101774.19;6254487;22;20501;-80
2022/03/14 01:19:59;;;;;;;13.70;10.15;;;;;;;7.63;61.96;101775.66;6282333;22;20015;-80
2022/03/14 01:22:27;;;;;;;14.02;9.20;;;;;;;7.58;62.70;101772.00;6241282;22;20457;-79
2022/03/14 01:24:56;;;;;;;14.73;10.68;;;;;;;7.51;62.72;101776.19;6240928;22;20356;-80
2022/03/14 01:27:24;;;;;;;10.55;8.90;;;;;;;7.45;63.28;101778.63;6299966;22;20015;-79
2022/03/14 01:29:53;;;;;;;13.10;10.20;;;;;;;7.40;63.37;101783.72;6255901;22;20022;-79
2022/03/14 01:32:21;;;;;;;13.35;9.75;;;;;;;7.32;64.10;101785.22;6303562;22;20016;-79
2022/03/14 01:34:50;;;;;;;14.15;9.60;;;;;;;7.25;64.67;101792.84;6262194;22;20493;-79
2022/03/14 01:37:19;;;;;;;11.30;9.52;;;;;;;7.18;65.20;101789.13;6305692;22;20020;-80
2022/03/14 01:39:48;;;;;;;12.50;8.90;;;;;;;7.10;65.64;101790.63;6302526;22;20019;-81
2022/03/14 01:42:19;;;;;;;13.88;9.90;;;;;;;7.02;66.34;101798.25;6241281;22;20011;-79
2022/03/14 01:44:48;;;;;;;11.32;9.70;;;;;;;6.94;66.32;101782.25;6309095;22;20479;-79
2022/03/14 01:47:17;;;;;;;12.63;10.23;;;;;;;6.90;67.28;101789.94;6305631;22;20015;-79
2022/03/14 01:49:46;;;;;;;10.75;9.07;;;;;;;6.86;67.48;101796.81;6296758;22;20027;-79
2022/03/14 01:52:15;;;;;;;12.93;9.02;;;;;;;6.82;68.01;101793.22;6306469;22;20026;-79
2022/03/14 01:54:43;;;;;;;13.50;9.90;;;;;;;6.81;68.98;101801.91;6272365;22;20027;-79
2022/03/14 01:57:13;;;;;;;12.52;10.18;;;;;;;6.81;69.20;101804.53;6302755;22;20042;-79
2022/03/14 01:59:42;;;;;;;12.80;10.05;;;;;;;6.84;70.24;101808.97;6306171;22;20240;-80
2022/03/14 02:02:16;;;;;;;11.00;9.90;;;;;;;6.89;70.57;101804.78;6269572;22;20011;-80
2022/03/14 02:04:47;;;;;;;10.20;9.07;;;;;;;6.93;71.21;101808.41;6278271;22;20330;-78
2022/03/14 02:07:16;;;;;;;14.32;10.43;;;;;;;6.96;71.38;101806.78;6294294;22;20020;-79
2022/03/14 02:09:47;;;;;;;13.02;9.95;;;;;;;7.00;71.97;101810.41;6303472;22;20022;-79
2022/03/14 02:12:15;;;;;;;12.50;9.70;;;;;;;7.04;72.36;101804.41;6263451;22;20015;-82
2022/03/14 02:14:44;;;;;;;11.00;9.77;;;;;;;7.09;72.86;101807.19;6327201;22;20022;-78
2022/03/14 02:17:18;;;;;;;14.00;9.85;;;;;;;7.12;73.41;101808.16;6285116;22;20444;-80
2022/03/14 02:19:47;;;;;;;13.07;9.85;;;;;;;7.15;73.52;101800.41;6311555;22;20018;-80
2022/03/14 02:22:16;;;;;;;12.43;9.45;;;;;;;7.17;74.12;101796.13;6236231;22;20011;-79
2022/03/14 02:24:46;;;;;;;11.48;9.20;;;;;;;7.19;74.21;101793.53;6285500;22;20019;-79
2022/03/14 02:27:15;;;;;;;13.32;10.00;;;;;;;7.20;74.19;101800.56;6293010;22;20033;-79
2022/03/14 02:29:44;;;;;;;11.95;9.48;;;;;;;7.21;74.46;101803.22;6306576;22;20057;-81
2022/03/14 02:32:12;;;;;;;11.35;9.85;;;;;;;7.20;74.76;101805.78;6251594;22;20010;-80
2022/03/14 02:34:41;;;;;;;13.80;10.18;;;;;;;7.19;74.72;101798.78;6308058;22;20470;-79
2022/03/14 02:37:10;;;;;;;12.25;9.80;;;;;;;7.17;75.48;101805.72;6271928;22;20023;-78
2022/03/14 02:39:38;;;;;;;12.63;10.30;;;;;;;7.16;76.34;101804.81;6284623;22;20034;-78
2022/03/14 02:42:09;;;;;;;;;;;;;;;7.15;78.53;101802.16;6309888;22;20014;-80
2022/03/14 02:44:43;;;;;;;12.30;9.85;;;;;;;7.15;76.90;101803.03;6299986;22;20674;-79
2022/03/14 02:47:11;;;;;;;10.45;9.30;;;;;;;7.17;77.11;101805.72;6341488;22;20018;-79
2022/03/14 02:49:40;;;;;;;12.05;9.13;;;;;;;7.17;77.34;101814.47;6276443;22;20034;-80
2022/03/14 02:52:09;;;;;;;11.68;10.13;;;;;;;7.19;77.35;101809.28;6302798;22;20710;-79
2022/03/14 02:54:38;;;;;;;12.30;9.18;;;;;;;7.20;77.90;101821.53;6288166;22;20018;-79
2022/03/14 02:57:08;;;;;;;14.18;10.20;;;;;;;7.21;78.41;101818.06;6313137;22;20019;-79
2022/03/14 02:59:37;;;;;;;15.25;10.20;;;;;;;7.22;78.47;101822.47;6257744;22;20022;-79
2022/03/14 03:02:06;;;;;;;12.30;9.82;;;;;;;7.23;78.81;101833.00;6313086;22;20313;-79
2022/03/14 03:04:34;;;;;;;13.20;10.32;;;;;;;7.25;79.11;101830.44;6283638;22;20430;-79
2022/03/14 03:07:03;;;;;;;12.38;10.45;;;;;;;7.27;79.33;101847.09;6271544;22;20054;-80
2022/03/14 03:09:31;;;;;;;10.82;9.65;;;;;;;7.28;79.45;101841.03;6340673;22;20046;-79
2022/03/14 03:12:01;;;;;;;13.80;9.80;;;;;;;7.30;80.06;101848.97;6307689;22;20478;-78
2022/03/14 03:14:31;;;;;;;12.73;10.50;;;;;;;7.31;79.86;101851.59;6283561;22;20022;-80
2022/03/14 03:17:00;;;;;;;13.63;10.27;;;;;;;7.33;80.56;101849.91;6232970;22;20018;-79
2022/03/14 03:19:29;;;;;;;11.05;9.85;;;;;;;7.33;80.30;101849.03;6285770;22;20015;-79
2022/03/14 03:21:59;;;;;;;12.63;10.57;;;;;;;7.31;81.01;101856.84;6337041;22;20483;-79
2022/03/14 03:24:28;;;;;;;11.75;10.20;;;;;;;7.31;81.05;101856.84;6275535;22;20022;-81
2022/03/14 03:26:57;;;;;;;12.07;9.57;;;;;;;7.33;81.04;101864.78;6310177;22;20357;-79
2022/03/14 03:29:25;;;;;;;13.13;11.10;;;;;;;7.33;81.09;101870.00;6299222;22;20019;-79
2022/03/14 03:31:54;;;;;;;14.02;10.90;;;;;;;7.33;82.09;101876.13;6333638;22;20019;-80
2022/03/14 03:34:23;;;;;;;14.50;11.18;;;;;;;7.33;82.39;101873.50;6255173;22;20022;-80
2022/03/14 03:36:52;;;;;;;12.95;10.68;;;;;;;7.34;82.39;101879.69;6308854;22;20487;-79
2022/03/14 03:39:20;;;;;;;14.00;10.15;;;;;;;7.34;82.99;101885.81;6266123;22;20019;-80
2022/03/14 03:41:49;;;;;;;14.15;10.88;;;;;;;7.33;82.90;101878.75;6310428;22;20023;-79
2022/03/14 03:44:17;;;;;;;11.40;10.18;;;;;;;7.34;83.06;101877.06;6259344;22;20026;-80
2022/03/14 03:46:46;;;;;;;13.10;11.20;;;;;;;7.34;83.41;101877.06;6283182;22;20019;-79
2022/03/14 03:49:14;;;;;;;12.57;10.50;;;;;;;7.35;83.91;101876.19;6288037;22;20019;-79
2022/03/14 03:51:45;;;;;;;12.35;10.95;;;;;;;7.35;84.09;101877.09;6285555;22;20018;-79
2022/03/14 03:54:13;;;;;;;11.55;10.38;;;;;;;7.36;84.67;101870.13;6265027;22;20018;-80
2022/03/14 03:56:48;;;;;;;12.70;10.55;;;;;;;7.37;84.97;101875.44;6279945;22;20026;-79
2022/03/14 03:59:16;;;;;;;11.68;10.02;;;;;;;7.39;84.81;101875.44;6253826;22;20026;-79
2022/03/14 04:01:46;;;;;;;14.50;10.40;;;;;;;7.39;85.73;101878.06;6306201;22;20019;-81
2022/03/14 04:04:15;;;;;;;11.57;10.38;;;;;;;7.41;85.92;101879.91;6312885;22;20026;-80
2022/03/14 04:06:44;;;;;;;9.90;8.88;;;;;;;7.42;86.50;101881.69;6311280;22;20021;-80
2022/03/14 04:09:13;;;;;;;11.27;9.98;;;;;;;7.45;86.73;101887.88;6313857;22;20348;-79
2022/03/14 04:11:42;;;;;;;11.45;9.45;;;;;;;7.46;87.26;101889.66;6237109;22;20348;-80
2022/03/14 04:14:11;;;;;;;14.50;9.95;;;;;;;7.47;87.97;101888.84;6341586;22;20019;-79
2022/03/14 04:16:40;;;;;;;11.40;9.88;;;;;;;7.48;88.25;101888.88;6222254;22;20019;-79
2022/03/14 04:19:09;;;;;;;11.35;10.15;;;;;;;7.49;88.49;101888.03;6275876;22;20015;-80
2022/03/14 04:21:39;;;;;;;9.45;8.40;;;;;;;7.51;89.41;101890.72;6307352;22;20022;-79
2022/03/14 04:24:07;;;;;;;10.93;9.68;;;;;;;7.55;90.19;101876.84;6286717;22;20227;-79
2022/03/14 04:26:36;;;;;;;11.45;9.25;;;;;;;7.58;90.37;101893.59;6300544;22;20018;-79
2022/03/14 04:29:05;;;;;;;9.88;8.98;;;;;;;7.61;90.76;101891.03;6308108;22;20074;-79
2022/03/14 04:31:34;;;;;;;10.18;9.15;;;;;;;7.64;90.62;101881.47;6286456;22;20022;-79
2022/03/14 04:34:03;;;;;;;13.35;9.10;;;;;;;7.66;90.80;101885.06;6244263;22;20022;-79
2022/03/14 04:36:34;;;;;;;9.80;8.65;;;;;;;7.67;91.15;101895.59;6313128;22;20025;-80
2022/03/14 04:39:06;;;;;;;11.18;8.43;;;;;;;7.68;91.28;101900.00;6314615;22;20014;-79
2022/03/14 04:41:38;;;;;;;8.52;7.72;;;;;;;7.70;91.78;101907.94;6330642;22;20026;-79
2022/03/14 04:44:07;;;;;;;10.10;8.98;;;;;;;7.70;91.88;101919.31;6311140;22;20029;-79
2022/03/14 04:46:35;;;;;;;9.50;8.23;;;;;;;7.72;92.39;101935.13;6293069;22;20014;-80
2022/03/14 04:49:05;;;;;;;11.02;7.93;;;;;;;7.71;92.88;101942.09;6311041;22;20210;-79
2022/03/14 04:51:34;;;;;;;9.10;8.20;;;;;;;7.72;93.43;101946.50;6318450;22;20015;-79
2022/03/14 04:54:03;;;;;;;8.95;8.05;;;;;;;7.74;94.04;101957.03;6276469;22;20210;-79
2022/03/14 04:56:31;;;;;;;8.32;7.50;;;;;;;7.73;94.44;101956.16;6311246;22;20055;-78
2022/03/14 04:59:03;;;;;;;8.45;7.55;;;;;;;7.75;94.38;101961.44;6278324;22;20360;-80
2022/03/14 05:01:32;;;;;;;9.30;7.65;;;;;;;7.75;94.36;101964.06;6312343;22;20014;-78
2022/03/14 05:04:01;;;;;;;10.25;7.57;;;;;;;7.73;94.87;101952.63;6268799;22;20018;-79
2022/03/14 05:06:30;;;;;;;8.48;7.55;;;;;;;7.74;95.06;101959.66;6336760;22;20011;-79
2022/03/14 05:08:59;;;;;;;8.88;7.82;;;;;;;7.73;95.47;101961.41;6257360;22;20494;-79
2022/03/14 05:11:27;;;;;;;9.88;7.93;;;;;;;7.75;95.21;101969.31;6339772;22;20015;-79
2022/03/14 05:13:56;;;;;;;9.57;8.52;;;;;;;7.74;96.12;101973.66;6297054;22;20101;-80
2022/03/14 05:16:25;;;;;;;8.00;7.20;;;;;;;7.75;96.53;101971.94;6287315;22;20034;-79
2022/03/14 05:18:54;;;;;;;8.07;7.25;;;;;;;7.75;96.86;101980.72;6303016;22;20023;-79
2022/03/14 05:21:23;;;;;;;8.60;7.63;;;;;;;7.76;97.18;101978.97;6258614;22;20021;-79
2022/03/14 05:23:52;;;;;;;8.55;7.60;;;;;;;7.77;97.30;101980.78;6307421;22;20234;-80
2022/03/14 05:26:21;;;;;;;8.10;7.30;;;;;;;7.76;97.49;101981.59;6301729;22;20026;-79
2022/03/14 05:28:49;;;;;;;7.85;6.45;;;;;;;7.75;97.68;101980.72;6294052;22;20019;-79
2022/03/14 05:31:21;;;;;;;16.02;11.55;;;;;;;7.76;97.69;101992.97;6300823;22;20022;-79
2022/03/14 05:33:49;;;;;;;12.93;10.20;;;;;;;7.74;98.48;101993.78;6255528;22;20015;-79
2022/03/14 05:36:18;;;;;;;9.38;7.82;;;;;;;7.75;99.00;102003.41;6273462;22;20030;-79
2022/03/14 05:38:48;;;;;;;8.40;7.50;;;;;;;7.76;99.35;102000.84;6275291;22;20026;-80
2022/03/14 05:41:17;;;;;;;8.07;7.20;;;;;;;7.78;100.00;102012.28;6313926;22;20019;-79
2022/03/14 05:43:48;;;;;;;7.68;6.88;;;;;;;7.81;100.00;102008.88;6298064;22;20019;-79
2022/03/14 05:46:16;;;;;;;8.75;6.90;;;;;;;7.85;100.00;102012.50;6287301;22;20023;-79
2022/03/14 05:48:45;;;;;;;8.02;6.82;;;;;;;7.86;100.00;102016.91;6259078;22;20014;-80
2022/03/14 05:51:13;;;;;;;8.45;7.55;;;;;;;7.88;100.00;102021.38;6308949;22;20018;-79
2022/03/14 05:53:42;;;;;;;9.13;7.20;;;;;;;7.89;100.00;102025.75;6284754;22;20018;-80
2022/03/14 05:56:10;;;;;;;7.57;6.88;;;;;;;7.90;100.00;102021.41;6276645;22;20073;-79
2022/03/14 05:58:39;;;;;;;7.30;6.57;;;;;;;7.90;100.00;102022.31;6273425;22;20014;-79
2022/03/14 06:01:07;;;;;;;7.05;6.35;;;;;;;7.90;100.00;102024.03;6250403;22;20467;-81
2022/03/14 06:03:36;;;;;;;8.23;6.03;;;;;;;7.90;100.00;102030.19;6311334;22;20184;-79
2022/03/14 06:06:05;;;;;;;7.22;6.38;;;;;;;7.89;100.00;102030.13;6283890;22;20239;-79
2022/03/14 06:08:34;;;;;;;7.30;6.45;;;;;;;7.90;100.00;102037.16;6268906;22;20023;-79
2022/03/14 06:11:05;;;;;;;6.50;5.90;;;;;;;7.89;100.00;102035.38;6283776;22;20046;-79
2022/03/14 06:13:34;;;;;;;6.25;5.65;;;;;;;7.90;100.00;102043.31;6324294;22;20019;-79
2022/03/14 06:16:03;;;;;;;7.07;6.38;;;;;;;7.91;100.00;102044.19;6336353;22;20228;-76
2022/03/14 06:18:32;;;;;;;6.80;6.20;;;;;;;7.90;100.00;102042.41;6275379;22;20045;-76
2022/03/14 06:21:00;;;;;;;6.68;6.07;;;;;;;7.89;100.00;102046.75;6286686;22;20359;-76
2022/03/14 06:23:29;;;;;;;7.68;6.10;;;;;;;7.89;100.00;102057.25;6217159;22;20025;-76
2022/03/14 06:25:57;;;;;;;6.10;5.50;;;;;;;7.89;100.00;102062.50;6283572;22;20023;-76
2022/03/14 06:28:26;;;;;;;9.13;6.13;;;;;;;7.88;100.00;102065.06;6232633;22;20242;-77
2022/03/14 06:30:56;;;;;;;16.70;10.20;;;;;;;7.87;100.00;102074.69;6340293;22;20015;-77
2022/03/14 06:33:50;;;;;;;7.85;7.05;;;;;;;7.86;100.00;102079.88;6287209;22;20030;-77
2022/03/14 06:36:19;;;;;;;6.82;6.03;;;;;;;7.85;100.00;102092.13;6302954;22;20026;-76
2022/03/14 06:38:48;;;;;;;6.90;6.18;;;;;;;7.84;100.00;102086.81;6301306;22;20459;-76
2022/03/14 06:41:18;;;;;;;11.13;6.03;;;;;;;7.83;100.00;102092.91;6295921;22;20019;-76
2022/03/14 06:43:47;;;;;;;13.30;6.80;;;;;;;7.81;100.00;102099.00;6248332;22;20019;-77
2022/03/14 06:46:16;;;;;;;7.07;6.38;;;;;;;7.81;100.00;102095.50;6298129;22;20471;-76
2022/03/14 06:48:46;;;;;;;7.22;6.13;;;;;;;7.80;100.00;102099.81;6312211;22;20019;-76
2022/03/14 06:51:15;;;;;;;6.85;6.20;;;;;;;7.79;100.00;102103.31;6336626;22;20015;-77
2022/03/14 06:53:44;;;;;;;6.38;5.80;;;;;;;7.80;100.00;102102.44;6290228;22;20340;-76
2022/03/14 06:56:15;;;;;;;7.47;6.13;;;;;;;7.81;100.00;102113.84;6301704;22;20019;-77
2022/03/14 06:58:44;;;;;;;7.13;6.18;;;;;;;7.81;100.00;102116.47;6286105;22;20332;-76
2022/03/14 07:01:13;;;;;;;7.18;6.32;;;;;;;7.81;100.00;102117.38;6274271;22;20432;-76
2022/03/14 07:03:42;;;;;;;9.95;6.35;;;;;;;7.82;100.00;102120.88;6257747;22;20022;-76
2022/03/14 07:06:13;;;;;;;6.32;5.65;;;;;;;7.84;100.00;102126.19;6270063;22;20030;-76
2022/03/14 07:08:43;;;;;;;13.48;6.93;;;;;;;7.84;100.00;102132.31;6327876;22;20022;-76
2022/03/14 07:11:12;;;;;;;7.05;6.45;;;;;;;7.86;100.00;102137.63;6279963;22;20022;-77
2022/03/14 07:13:41;;;;;;;6.40;5.72;;;;;;;7.86;100.00;102135.88;6227629;22;20147;-76
2022/03/14 07:16:09;;;;;;;6.95;6.35;;;;;;;7.87;100.00;102137.69;6275998;22;20479;-75
2022/03/14 07:18:40;;;;;;;7.82;6.32;;;;;;;7.88;100.00;102139.47;6235517;22;20018;-76
2022/03/14 07:21:10;;;;;;;8.35;6.72;;;;;;;7.89;100.00;102140.38;6301110;22;20021;-78
2022/03/14 07:23:39;;;;;;;7.85;6.03;;;;;;;7.91;100.00;102146.56;6279176;22;20023;-77
2022/03/14 07:26:07;;;;;;;7.40;6.70;;;;;;;7.92;100.00;102150.94;6245006;22;20019;-75
2022/03/14 07:28:36;;;;;;;8.27;6.85;;;;;;;7.93;100.00;102142.25;6268692;22;20128;-76
2022/03/14 07:31:07;;;;;;;7.85;7.03;;;;;;;7.93;100.00;102144.88;6269826;22;20029;-77
2022/03/14 07:33:36;;;;;;;9.02;6.50;;;;;;;7.94;100.00;102146.63;6308017;22;20127;-76
2022/03/14 07:36:04;;;;;;;6.88;6.18;;;;;;;7.94;100.00;102149.25;6314104;22;20019;-77
2022/03/14 07:38:34;;;;;;;8.17;7.33;;;;;;;7.94;100.00;102151.88;6304945;22;20023;-76
2022/03/14 07:41:03;;;;;;;7.93;6.78;;;;;;;7.94;100.00;102152.81;6254521;22;20260;-76
2022/03/14 07:43:31;;;;;;;7.53;6.80;;;;;;;7.95;100.00;102156.31;6302333;22;20510;-76
2022/03/14 07:46:01;;;;;;;8.40;7.50;;;;;;;7.95;100.00;102159.81;6268600;22;20348;-76
2022/03/14 07:48:30;;;;;;;8.75;7.13;;;;;;;7.96;100.00;102164.25;6281439;22;20018;-76
2022/03/14 07:50:59;;;;;;;8.32;7.15;;;;;;;7.97;100.00;102165.13;6304885;22;20329;-76
2022/03/14 07:53:27;;;;;;;9.40;7.40;;;;;;;7.97;100.00;102167.75;6241268;22;20452;-76
2022/03/14 07:55:56;;;;;;;9.75;7.25;;;;;;;7.97;100.00;102167.75;6244320;22;20019;-76
2022/03/14 07:58:26;;;;;;;8.02;7.05;;;;;;;7.97;100.00;102175.63;6245429;22;20450;-76
2022/03/14 08:01:01;;;;;;;8.40;7.38;;;;;;;7.96;100.00;102172.13;6252100;22;20018;-76
2022/03/14 08:03:31;;;;;;;9.60;7.50;;;;;;;7.96;100.00;102174.75;6228541;22;20029;-76
2022/03/14 08:06:00;;;;;;;8.20;7.40;;;;;;;7.97;100.00;102181.78;6278590;22;20019;-75
2022/03/14 08:08:29;;;;;;;9.38;7.05;;;;;;;7.99;100.00;102180.09;6238588;22;20243;-75
2022/03/14 08:11:01;;;;;;;8.70;7.43;;;;;;;8.00;100.00;102188.88;6305427;22;20026;-76
2022/03/14 08:13:34;;;;;;;8.40;7.20;;;;;;;8.02;100.00;102187.19;6321278;22;20302;-76
2022/03/14 08:16:03;;;;;;;9.75;7.75;;;;;;;8.04;100.00;102182.00;6284275;22;20026;-77
2022/03/14 08:18:31;;;;;;;8.52;7.53;;;;;;;8.05;100.00;102189.03;6263848;22;20329;-76
2022/03/14 08:21:00;;;;;;;9.70;7.70;;;;;;;8.06;100.00;102186.47;6305065;22;20019;-76
2022/03/14 08:23:28;;;;;;;9.13;7.93;;;;;;;8.09;100.00;102199.72;6260044;22;20553;-76
2022/03/14 08:25:57;;;;;;;8.63;7.78;;;;;;;8.10;100.00;102204.09;6337449;22;20015;-76
2022/03/14 08:28:26;;;;;;;8.93;8.00;;;;;;;8.13;100.00;102200.72;6292373;22;20011;-76
2022/03/14 08:30:56;;;;;;;9.07;7.63;;;;;;;8.14;100.00;102211.25;6225313;22;20030;-76
2022/03/14 08:33:27;;;;;;;7.95;7.25;;;;;;;8.17;100.00;102205.22;6281692;22;20501;-78
2022/03/14 08:36:00;;;;;;;8.55;7.65;;;;;;;8.19;100.00;102214.03;6338073;22;20011;-76
2022/03/14 08:38:29;;;;;;;9.20;7.47;;;;;;;8.21;100.00;102209.75;6319513;22;20234;-75
2022/03/14 08:40:59;;;;;;;9.57;7.93;;;;;;;8.24;100.00;102214.19;6309959;22;20325;-76
2022/03/14 08:43:27;;;;;;;9.15;8.20;;;;;;;8.25;100.00;102219.50;6295183;22;20022;-76
2022/03/14 08:45:56;;;;;;;9.23;8.32;;;;;;;8.25;100.00;102218.63;6337385;22;20344;-76
2022/03/14 08:48:25;;;;;;;12.27;9.57;;;;;;;8.25;100.00;102214.25;6257577;22;20467;-76
2022/03/14 08:50:54;;;;;;;8.88;7.95;;;;;;;8.26;100.00;102220.38;6307283;22;20018;-76
2022/03/14 08:53:22;;;;;;;10.70;9.13;;;;;;;8.26;100.00;102225.63;6328219;22;20023;-76
2022/03/14 08:55:52;;;;;;;10.57;8.93;;;;;;;8.26;100.00;102228.25;6266035;22;20033;-76
2022/03/14 08:58:21;;;;;;;10.38;9.27;;;;;;;8.26;100.00;102225.63;6245402;22;20036;-75
2022/03/14 09:00:49;;;;;;;8.93;7.95;;;;;;;8.26;100.00;102225.63;6317676;22;20022;-76
2022/03/14 09:03:18;;;;;;;10.68;9.05;;;;;;;8.27;100.00;102227.44;6265661;22;20026;-76
2022/03/14 09:05:47;;;;;;;15.52;8.80;;;;;;;8.27;100.00;102243.19;6271975;22;20019;-76
2022/03/14 09:08:17;;;;;;;10.82;8.82;;;;;;;8.27;100.00;102233.56;6274319;22;20026;-75
2022/03/14 09:10:46;;;;;;;11.85;9.25;;;;;;;8.28;100.00;102238.00;6246209;22;20480;-75
2022/03/14 09:13:15;;;;;;;10.50;8.82;;;;;;;8.31;100.00;102240.72;6305122;22;20026;-75
2022/03/14 09:15:44;;;;;;;13.80;10.00;;;;;;;8.32;100.00;102239.88;6290367;22;20027;-75
2022/03/14 09:18:15;;;;;;;10.32;9.30;;;;;;;8.34;100.00;102237.31;6280367;22;20015;-76
2022/03/14 09:20:47;;;;;;;11.43;9.20;;;;;;;8.35;100.00;102241.72;6268639;22;20384;-76
2022/03/14 09:23:20;;;;;;;9.50;8.43;;;;;;;8.36;100.00;102247.03;6293716;22;20023;-76
2022/03/14 09:25:49;;;;;;;11.10;9.48;;;;;;;8.37;100.00;102243.56;6293332;22;20026;-76
2022/03/14 09:28:20;;;;;;;9.90;8.93;;;;;;;8.42;100.00;102248.13;6234591;22;20023;-75
2022/03/14 09:30:50;;;;;;;11.77;9.48;;;;;;;8.44;100.00;102244.69;6284787;22;20031;-76
2022/03/14 09:33:19;;;;;;;11.75;9.70;;;;;;;8.45;100.00;102243.88;6291081;22;20027;-76
2022/03/14 09:35:47;;;;;;;9.77;8.77;;;;;;;8.48;100.00;102243.97;6256127;22;20027;-75
2022/03/14 09:38:17;;;;;;;13.30;10.18;;;;;;;8.49;100.00;102251.00;6251003;22;20027;-76
2022/03/14 09:40:49;;;;;;;11.67;10.23;;;;;;;8.51;100.00;102251.97;6272162;22;20019;-75
2022/03/14 09:43:18;;;;;;;12.68;10.35;;;;;;;8.54;100.00;102256.41;6287471;22;20531;-75
2022/03/14 09:45:48;;;;;;;13.10;11.00;;;;;;;8.53;100.00;102265.16;6254759;22;20019;-75
2022/03/14 09:48:17;;;;;;;10.75;9.60;;;;;;;8.53;100.00;102260.78;6292101;22;20022;-75
2022/03/14 09:50:46;;;;;;;11.68;10.25;;;;;;;8.54;100.00;102265.22;6257121;22;20023;-75
2022/03/14 09:53:17;;;;;;;10.50;9.43;;;;;;;8.54;100.00;102267.84;6300785;22;20034;-76
2022/03/14 09:55:48;;;;;;;12.45;10.00;;;;;;;8.54;100.00;102275.72;6294096;22;20330;-75
2022/03/14 09:58:19;;;;;;;12.02;10.70;;;;;;;8.55;100.00;102269.59;6247783;22;20016;-75
2022/03/14 10:00:49;;;;;;;14.25;11.20;;;;;;;8.56;100.00;102271.41;6267796;22;20027;-75
2022/03/14 10:03:22;;;;;;;14.95;11.32;;;;;;;8.59;100.00;102274.13;6295497;22;20027;-75
2022/03/14 10:05:51;;;;;;;14.70;11.57;;;;;;;8.62;100.00;102277.69;6284303;22;20023;-75
2022/03/14 10:08:20;;;;;;;11.75;10.57;;;;;;;8.64;100.00;102279.56;6299843;22;20026;-75
2022/03/14 10:10:49;;;;;;;13.38;11.55;;;;;;;8.66;100.00;102287.47;6292582;22;20030;-75
2022/03/14 10:13:37;;;;;;;13.68;11.77;;;;;;;8.67;100.00;102274.38;6296991;22;20299;-75
2022/03/14 10:16:06;;;;;;;12.93;11.43;;;;;;;8.69;100.00;102284.94;6259370;22;20023;-74
2022/03/14 10:19:02;;;;;;;15.00;11.35;;;;;;;8.69;100.00;102282.31;6288661;22;20454;-77
2022/03/14 10:21:35;;;;;;;13.73;11.57;;;;;;;8.69;100.00;102290.19;6290478;22;20018;-75
2022/03/14 10:24:12;;;;;;;15.68;12.73;;;;;;;8.71;100.00;102292.03;6301577;22;20231;-75
2022/03/14 10:26:42;;;;;;;13.35;12.00;;;;;;;8.73;100.00;102292.09;6323431;22;20025;-76
2022/03/14 10:29:12;;;;;;;13.57;12.15;;;;;;;8.74;100.00;102296.53;6297322;22;20581;-76
2022/03/14 10:31:47;;;;;;;15.93;13.25;;;;;;;8.75;100.00;102299.22;6297445;22;20034;-76
2022/03/14 10:34:18;;;;;;;14.30;12.63;;;;;;;8.76;100.00;102300.09;6293961;22;20593;-76
2022/03/14 10:36:52;;;;;;;14.82;13.18;;;;;;;8.73;100.00;102297.34;6315767;22;20454;-76
2022/03/14 10:39:31;;;;;;;15.95;13.52;;;;;;;8.72;100.00;102306.09;6302731;22;20021;-75
2022/03/14 10:42:08;;;;;;;15.38;13.35;;;;;;;8.70;100.00;102310.41;6320594;22;20057;-76
2022/03/14 10:44:53;;;;;;;16.70;14.30;;;;;;;8.69;100.00;102317.38;6295014;22;20478;-76
2022/03/14 10:47:25;;;;;;;16.27;14.13;;;;;;;8.71;100.00;102312.16;6325489;22;20034;-75
2022/03/14 10:49:54;;;;;;;18.35;15.13;;;;;;;8.73;100.00;102313.13;6293771;22;20250;-76
2022/03/14 10:52:25;;;;;;;18.23;15.77;;;;;;;8.74;100.00;102317.53;6290544;22;20023;-75
2022/03/14 10:54:55;;;;;;;18.02;15.50;;;;;;;8.75;100.00;102319.31;6268366;22;20033;-75
2022/03/14 10:57:26;;;;;;;15.98;13.25;;;;;;;8.75;100.00;102309.72;6304616;22;20033;-76
2022/03/14 10:59:56;;;;;;;16.48;14.43;;;;;;;8.74;100.00;102317.53;6258410;22;20139;-77
2022/03/14 11:02:28;;;;;;;17.08;14.88;;;;;;;8.72;100.00;102319.22;6287003;22;20022;-76
2022/03/14 11:05:02;;;;;;;21.58;15.60;;;;;;;8.70;100.00;102321.81;6283923;22;20022;-77
2022/03/14 11:07:32;;;;;;;21.83;14.88;;;;;;;8.68;100.00;102331.38;6254685;22;20023;-76
2022/03/14 11:10:06;;;;;;;19.15;15.52;;;;;;;8.67;100.00;102331.31;6278459;22;20218;-76
2022/03/14 11:12:37;;;;;;;18.85;14.63;;;;;;;8.66;100.00;102334.75;6326464;22;20470;-76
2022/03/14 11:15:09;;;;;;;20.85;15.52;;;;;;;8.61;100.00;102337.25;6287313;22;20125;-75
2022/03/14 11:17:37;;;;;;;22.75;16.60;;;;;;;8.59;100.00;102352.94;6247704;22;20023;-75
2022/03/14 11:20:26;;;;;;;23.77;14.48;;;;;;;8.57;100.00;102349.38;6254363;22;20074;-75
2022/03/14 11:22:56;;;;;;;19.90;13.43;;;;;;;8.55;100.00;102356.31;6280177;22;20667;-75
2022/03/14 11:25:27;;;;;;;24.25;13.77;;;;;;;8.53;100.00;102358.00;6296671;22;20049;-75
2022/03/14 11:27:58;;;;;;;19.67;12.18;;;;;;;8.52;100.00;102360.56;6273298;22;20019;-76
2022/03/14 11:30:29;;;;;;;23.20;12.35;;;;;;;8.54;100.00;102361.50;6276725;22;20451;-75
2022/03/14 11:32:57;;;;;;;;;;;;;;;8.54;100.00;102362.44;6261434;22;20026;-76